Main page
METAR-TAF:

METAR-TAF

Airports :

Leuchars Station

Leuchars, Scotland

latitude: 56-23N, longitude: 002-52W, elevation: 12 m

Current weather observation

The report was made 29 minutes ago, at 23:50 UTC
Wind 6 kt from the West
Temperature -2°C
Humidity 86%
Pressure 997 hPa
Visibility 10 km or more
no clouds below 1500 m and no cumulonimbus

METAR: EGQL 222350Z 27006KT CAVOK M02/M04 Q0997 BLU

Time: 00:19 (00:19 UTC)

Forecast

The report was made 1 hour and 45 minutes ago, at 22:34 UTC
Forecast valid from 23 at 00 UTC to 23 at 09 UTC
Wind 6 kt from the West
Visibility 10 km or more
no clouds below 1500 m and no cumulonimbus

TAF: EGQL 222234Z 2300/2309 27006KT CAVOK

Weather observations and forecasts of more than 4000 airports (METAR and TAF reports).

The available stations are represented by yellow and red dots on the map.

Hover mouse over dot to see the name of the station.

Then click to see weather observations and forecasts.

To change the map : click on the green buttons with a black cross to zoom in, on the green button with a dash to zoom out, or on the green arrows for adjacent maps.


METAR-TAF: